Time;durP1;ratioP1;P1;durP2;ratioP2;P2;SDS_P1;SDS_P2;PMS_P1;PMS_P2;Temp;Humidity;BMP_temperature;BMP_pressure;BME280_temperature;BME280_humidity;BME280_pressure;Samples;Min_cycle;Max_cycle;Signal;HPM_P1;HPM_P2
2022/01/17 00:01:27;;;;;;;21.00;14.10;;;;;;;;;;5043406;28;20486;-53
2022/01/17 00:03:52;;;;;;;19.52;13.80;;;;;;;;;;5062190;28;20031;-56
2022/01/17 00:06:17;;;;;;;21.07;14.43;;;;;;;;;;5043942;28;20024;-55
2022/01/17 00:08:44;;;;;;;20.77;14.30;;;;;;;;;;5061904;28;20270;-53
2022/01/17 00:11:11;;;;;;;20.65;14.80;;;;;;;;;;5061613;28;20270;-53
2022/01/17 00:13:38;;;;;;;20.40;14.27;;;;;;;;;;5061255;28;20063;-58
2022/01/17 00:16:09;;;;;;;20.02;14.25;;;;;;;;;;5061650;28;20327;-55
2022/01/17 00:21:03;;;;;;;19.48;13.60;;;;;;;;;;5061817;28;20115;-53
2022/01/17 00:23:28;;;;;;;21.75;14.73;;;;;;;;;;5061395;28;20570;-57
2022/01/17 00:25:53;;;;;;;21.50;15.40;;;;;;;;;;5061393;28;20028;-57
2022/01/17 00:28:18;;;;;;;20.47;14.93;;;;;;;;;;5061670;28;20263;-56
2022/01/17 00:30:44;;;;;;;21.05;14.57;;;;;;;;;;5061437;28;20295;-56
2022/01/17 00:33:09;;;;;;;21.07;14.87;;;;;;;;;;5039751;28;20044;-57
2022/01/17 00:35:34;;;;;;;20.20;14.65;;;;;;;;;;5043653;28;20306;-55
2022/01/17 00:38:00;;;;;;;20.83;14.47;;;;;;;;;;5040194;28;20056;-54
2022/01/17 00:40:25;;;;;;;21.30;14.53;;;;;;;;;;5050258;28;20657;-54
2022/01/17 00:42:50;;;;;;;22.00;15.13;;;;;;;;;;5061615;28;20039;-57
2022/01/17 00:45:16;;;;;;;20.98;14.35;;;;;;;;;;5061254;28;20025;-58
2022/01/17 00:47:41;;;;;;;22.00;15.60;;;;;;;;;;5061001;28;20520;-55
2022/01/17 00:50:07;;;;;;;19.27;14.45;;;;;;;;;;5061350;28;20104;-56
2022/01/17 00:52:32;;;;;;;20.08;14.13;;;;;;;;;;5060911;28;20552;-53
2022/01/17 00:54:57;;;;;;;21.57;14.93;;;;;;;;;;5061149;28;20039;-56
2022/01/17 00:57:22;;;;;;;21.40;14.73;;;;;;;;;;5065016;28;20288;-55
2022/01/17 00:59:48;;;;;;;22.00;14.77;;;;;;;;;;5065014;28;20021;-56
2022/01/17 01:02:13;;;;;;;21.08;15.15;;;;;;;;;;5064713;28;20077;-56
2022/01/17 01:04:38;;;;;;;21.27;14.60;;;;;;;;;;5065078;28;20016;-56
2022/01/17 01:07:03;;;;;;;21.20;14.67;;;;;;;;;;5065026;28;20027;-56
2022/01/17 01:09:34;;;;;;;20.93;14.80;;;;;;;;;;5044883;28;20765;-55
2022/01/17 01:11:59;;;;;;;19.20;13.98;;;;;;;;;;5064808;28;20263;-52
2022/01/17 01:14:24;;;;;;;20.42;14.75;;;;;;;;;;5055720;28;20680;-52
2022/01/17 01:16:53;;;;;;;20.40;14.37;;;;;;;;;;5056988;28;20028;-56
2022/01/17 01:19:28;;;;;;;22.80;15.48;;;;;;;;;;5064864;28;20320;-55
2022/01/17 01:29:57;;;;;;;20.23;14.65;;;;;;;;;;5049301;28;20024;-52
2022/01/17 01:32:26;;;;;;;19.60;14.40;;;;;;;;;;5064459;28;20025;-56
2022/01/17 01:34:54;;;;;;;21.48;15.25;;;;;;;;;;5051815;28;20041;-55
2022/01/17 01:37:20;;;;;;;21.67;15.43;;;;;;;;;;5060884;28;20051;-56
2022/01/17 01:39:48;;;;;;;19.40;13.80;;;;;;;;;;5064488;28;20024;-53
2022/01/17 01:42:17;;;;;;;20.48;15.00;;;;;;;;;;5064289;28;20366;-53
2022/01/17 01:44:42;;;;;;;19.10;14.52;;;;;;;;;;5064241;28;20374;-54
2022/01/17 01:47:07;;;;;;;20.85;15.45;;;;;;;;;;5064112;28;20060;-55
2022/01/17 01:49:33;;;;;;;19.57;13.93;;;;;;;;;;5063979;28;20025;-55
2022/01/17 01:51:58;;;;;;;22.07;15.37;;;;;;;;;;5063013;28;20302;-54
2022/01/17 01:54:23;;;;;;;20.73;14.77;;;;;;;;;;5061736;28;20662;-55
2022/01/17 01:56:49;;;;;;;21.20;15.37;;;;;;;;;;5063211;28;20270;-55
2022/01/17 01:59:14;;;;;;;21.15;14.88;;;;;;;;;;5063179;28;20024;-54
2022/01/17 02:01:40;;;;;;;21.40;15.48;;;;;;;;;;5062646;28;20024;-58
2022/01/17 02:04:05;;;;;;;21.63;15.30;;;;;;;;;;5062780;28;20411;-54
2022/01/17 02:06:32;;;;;;;20.17;14.97;;;;;;;;;;5063045;28;20270;-55
2022/01/17 02:08:57;;;;;;;19.48;14.13;;;;;;;;;;5062636;28;20033;-57
2022/01/17 02:11:23;;;;;;;21.20;14.93;;;;;;;;;;5062416;28;20454;-56
2022/01/17 02:13:48;;;;;;;20.73;14.80;;;;;;;;;;5062838;28;20503;-54
2022/01/17 02:16:15;;;;;;;20.13;14.43;;;;;;;;;;5062781;28;20275;-54
2022/01/17 02:18:41;;;;;;;21.70;15.10;;;;;;;;;;5062925;28;20285;-55
2022/01/17 02:21:13;;;;;;;23.42;15.93;;;;;;;;;;5062556;28;20490;-55
2022/01/17 02:23:38;;;;;;;22.05;15.27;;;;;;;;;;5062350;28;20035;-53
2022/01/17 02:26:04;;;;;;;20.95;15.25;;;;;;;;;;5062561;28;20418;-53
2022/01/17 02:28:29;;;;;;;19.83;14.43;;;;;;;;;;5062642;28;20028;-53
2022/01/17 02:30:54;;;;;;;21.60;15.40;;;;;;;;;;5062251;28;20745;-52
2022/01/17 02:33:19;;;;;;;21.57;15.57;;;;;;;;;;5062580;28;20044;-54
2022/01/17 02:35:48;;;;;;;20.40;14.70;;;;;;;;;;5062089;28;20278;-53
2022/01/17 02:38:13;;;;;;;20.08;15.13;;;;;;;;;;5062281;28;20274;-52
2022/01/17 02:40:38;;;;;;;22.85;16.13;;;;;;;;;;5062304;28;20498;-54
2022/01/17 02:43:06;;;;;;;21.38;15.82;;;;;;;;;;5062099;28;20029;-52
2022/01/17 02:45:33;;;;;;;21.35;15.65;;;;;;;;;;5062336;28;20064;-53
2022/01/17 02:47:59;;;;;;;22.33;15.30;;;;;;;;;;5062244;28;20028;-53
2022/01/17 02:50:24;;;;;;;21.43;15.27;;;;;;;;;;5022589;28;1127761;-53
2022/01/17 02:52:50;;;;;;;19.63;14.80;;;;;;;;;;5062818;28;20040;-55
2022/01/17 02:55:15;;;;;;;21.60;15.53;;;;;;;;;;5062914;28;20039;-55
2022/01/17 02:57:40;;;;;;;19.50;15.03;;;;;;;;;;5062924;28;20270;-55
2022/01/17 03:00:09;;;;;;;21.33;14.43;;;;;;;;;;5062847;28;20115;-52
2022/01/17 03:02:34;;;;;;;20.17;14.52;;;;;;;;;;5063030;28;20262;-55
2022/01/17 03:04:59;;;;;;;20.80;14.98;;;;;;;;;;5062731;28;20048;-52
2022/01/17 03:07:25;;;;;;;22.03;15.53;;;;;;;;;;5041366;28;20027;-55
2022/01/17 03:10:02;;;;;;;19.98;14.45;;;;;;;;;;5062359;28;20560;-53
2022/01/17 03:12:27;;;;;;;21.88;15.50;;;;;;;;;;5062779;28;20075;-54
2022/01/17 03:14:53;;;;;;;19.10;14.50;;;;;;;;;;5062579;28;20032;-55
2022/01/17 03:17:18;;;;;;;22.43;15.63;;;;;;;;;;5062563;28;20624;-55
2022/01/17 03:19:43;;;;;;;21.53;14.87;;;;;;;;;;5061594;28;20673;-52
2022/01/17 03:22:08;;;;;;;21.73;15.60;;;;;;;;;;5062279;28;20727;-51
2022/01/17 03:24:33;;;;;;;21.47;15.20;;;;;;;;;;5061981;28;20391;-54
2022/01/17 03:26:59;;;;;;;21.27;14.97;;;;;;;;;;5061636;28;20517;-55
2022/01/17 03:29:24;;;;;;;21.27;15.03;;;;;;;;;;5061694;28;20547;-55
2022/01/17 03:31:49;;;;;;;21.42;14.50;;;;;;;;;;5061737;28;20552;-57
2022/01/17 03:34:14;;;;;;;21.40;15.07;;;;;;;;;;5061922;28;20432;-56
2022/01/17 03:36:40;;;;;;;23.17;15.70;;;;;;;;;;5062239;28;20271;-56
2022/01/17 03:39:05;;;;;;;22.23;15.85;;;;;;;;;;5061781;28;20498;-52
2022/01/17 03:41:31;;;;;;;21.53;15.57;;;;;;;;;;5061821;28;20030;-53
2022/01/17 03:43:56;;;;;;;21.53;15.47;;;;;;;;;;5062031;28;20617;-52
2022/01/17 03:46:21;;;;;;;21.60;15.27;;;;;;;;;;5062079;28;20526;-52
2022/01/17 03:48:46;;;;;;;20.10;14.73;;;;;;;;;;5062057;28;20626;-51
2022/01/17 03:51:12;;;;;;;19.77;14.25;;;;;;;;;;5061854;28;20055;-51
2022/01/17 03:53:37;;;;;;;21.05;15.00;;;;;;;;;;5061720;28;20576;-51
2022/01/17 03:56:02;;;;;;;21.08;15.02;;;;;;;;;;5061893;28;20112;-52
2022/01/17 03:58:28;;;;;;;20.83;14.65;;;;;;;;;;5061587;28;20024;-55
2022/01/17 04:00:55;;;;;;;22.17;14.60;;;;;;;;;;5061893;28;20036;-55
2022/01/17 04:03:20;;;;;;;20.48;14.63;;;;;;;;;;5062288;28;20021;-54
2022/01/17 04:05:45;;;;;;;21.87;15.47;;;;;;;;;;5062168;28;20404;-53
2022/01/17 04:08:10;;;;;;;20.40;14.52;;;;;;;;;;5061815;28;20316;-52
2022/01/17 04:10:36;;;;;;;21.23;15.43;;;;;;;;;;5061971;28;20538;-52
2022/01/17 04:13:03;;;;;;;21.17;14.50;;;;;;;;;;5062156;28;20035;-55
2022/01/17 04:15:29;;;;;;;19.33;13.90;;;;;;;;;;5061904;28;20328;-53
2022/01/17 04:17:55;;;;;;;22.05;15.07;;;;;;;;;;5061808;28;20025;-53
2022/01/17 04:20:26;;;;;;;20.48;14.25;;;;;;;;;;5062078;28;20158;-51
2022/01/17 04:22:53;;;;;;;19.73;14.90;;;;;;;;;;5061907;28;20587;-52
2022/01/17 04:25:19;;;;;;;18.73;14.00;;;;;;;;;;5062127;28;20119;-51
2022/01/17 04:27:44;;;;;;;19.37;14.20;;;;;;;;;;5043696;28;20234;-51
2022/01/17 04:30:09;;;;;;;20.35;14.77;;;;;;;;;;5062019;28;20262;-51
2022/01/17 04:32:35;;;;;;;20.52;14.50;;;;;;;;;;5065717;28;20446;-53
2022/01/17 04:35:00;;;;;;;19.67;13.63;;;;;;;;;;5065786;28;20021;-52
2022/01/17 04:37:25;;;;;;;19.50;14.30;;;;;;;;;;5065659;28;20028;-52
2022/01/17 04:39:50;;;;;;;19.60;13.60;;;;;;;;;;5065618;28;20024;-51
2022/01/17 04:42:17;;;;;;;19.53;13.60;;;;;;;;;;5065831;28;20259;-51
2022/01/17 04:47:29;;;;;;;18.38;13.27;;;;;;;;;;5065819;28;20031;-53
2022/01/17 04:49:54;;;;;;;19.60;13.57;;;;;;;;;;5065307;28;20138;-55
2022/01/17 04:52:19;;;;;;;18.87;13.57;;;;;;;;;;5065139;28;20157;-53
2022/01/17 04:54:51;;;;;;;19.20;13.50;;;;;;;;;;5065359;28;20301;-53
2022/01/17 04:57:17;;;;;;;18.13;13.02;;;;;;;;;;5065294;28;20271;-54
2022/01/17 04:59:42;;;;;;;17.98;14.07;;;;;;;;;;5065308;28;20442;-53
2022/01/17 05:02:08;;;;;;;18.05;13.07;;;;;;;;;;5065300;28;20027;-53
2022/01/17 05:04:33;;;;;;;17.98;13.68;;;;;;;;;;5043843;28;20198;-52
2022/01/17 05:06:58;;;;;;;17.97;13.73;;;;;;;;;;5057419;28;20020;-54
2022/01/17 05:09:23;;;;;;;17.80;12.77;;;;;;;;;;5065003;28;20028;-56
2022/01/17 05:11:49;;;;;;;18.13;13.68;;;;;;;;;;5065031;28;20031;-54
2022/01/17 05:14:14;;;;;;;18.50;14.20;;;;;;;;;;5064964;28;20107;-54
2022/01/17 05:16:46;;;;;;;16.50;12.40;;;;;;;;;;5065282;28;20490;-53
2022/01/17 05:21:55;;;;;;;18.17;12.65;;;;;;;;;;5064652;28;20036;-52
2022/01/17 05:24:21;;;;;;;16.27;12.37;;;;;;;;;;5064802;28;20024;-54
2022/01/17 05:26:46;;;;;;;18.13;12.98;;;;;;;;;;5064901;28;20274;-52
2022/01/17 05:29:11;;;;;;;17.65;12.98;;;;;;;;;;5064528;28;20450;-54
2022/01/17 05:31:36;;;;;;;19.20;12.60;;;;;;;;;;5064593;28;20029;-53
2022/01/17 05:34:02;;;;;;;16.57;12.47;;;;;;;;;;5064703;28;20089;-57
2022/01/17 05:36:27;;;;;;;17.52;13.23;;;;;;;;;;5064669;28;20610;-53
2022/01/17 05:38:52;;;;;;;16.93;12.63;;;;;;;;;;5064514;28;20478;-54
2022/01/17 05:41:18;;;;;;;18.43;13.40;;;;;;;;;;5063895;28;20020;-56
2022/01/17 05:43:43;;;;;;;17.98;12.52;;;;;;;;;;5064560;28;20267;-55
2022/01/17 05:46:08;;;;;;;17.13;12.57;;;;;;;;;;5064605;28;20481;-53
2022/01/17 05:48:33;;;;;;;15.87;12.13;;;;;;;;;;5064442;28;20687;-54
2022/01/17 05:50:59;;;;;;;16.77;12.33;;;;;;;;;;5064292;28;20447;-55
2022/01/17 05:53:24;;;;;;;17.17;12.53;;;;;;;;;;5064366;28;20068;-56
2022/01/17 05:55:49;;;;;;;17.90;12.87;;;;;;;;;;5064056;28;20070;-55
2022/01/17 05:58:14;;;;;;;18.55;12.98;;;;;;;;;;5063962;28;20266;-55
2022/01/17 06:00:40;;;;;;;15.90;12.20;;;;;;;;;;5064059;28;20469;-56
2022/01/17 06:03:05;;;;;;;16.67;12.00;;;;;;;;;;5064098;28;20306;-57
2022/01/17 06:05:30;;;;;;;16.73;12.63;;;;;;;;;;5064136;28;20269;-53
2022/01/17 06:07:55;;;;;;;16.47;11.90;;;;;;;;;;5063753;28;20270;-56
2022/01/17 06:10:21;;;;;;;16.83;12.05;;;;;;;;;;5063809;28;20274;-57
2022/01/17 06:12:46;;;;;;;16.80;12.50;;;;;;;;;;5063620;28;20020;-55
2022/01/17 06:15:11;;;;;;;16.33;12.03;;;;;;;;;;5046819;28;20356;-58
2022/01/17 06:17:36;;;;;;;16.23;12.05;;;;;;;;;;5046791;28;20299;-59
2022/01/17 06:20:02;;;;;;;18.30;12.00;;;;;;;;;;5063921;28;20020;-54
2022/01/17 06:22:28;;;;;;;17.38;12.07;;;;;;;;;;5052853;28;20324;-55
2022/01/17 06:24:53;;;;;;;14.20;11.13;;;;;;;;;;5062842;28;20028;-53
2022/01/17 06:27:18;;;;;;;15.60;11.35;;;;;;;;;;5063419;28;20109;-54
2022/01/17 06:29:43;;;;;;;16.50;11.25;;;;;;;;;;5063425;28;20115;-54
2022/01/17 06:32:09;;;;;;;15.23;11.30;;;;;;;;;;5045502;28;20058;-54
2022/01/17 06:34:34;;;;;;;15.73;11.15;;;;;;;;;;5064060;28;20306;-53
2022/01/17 06:36:59;;;;;;;14.93;11.03;;;;;;;;;;5064095;28;20101;-53
2022/01/17 06:39:24;;;;;;;15.70;11.20;;;;;;;;;;5056981;28;20306;-54
2022/01/17 06:41:50;;;;;;;14.60;10.93;;;;;;;;;;5044314;28;20263;-57
2022/01/17 06:44:16;;;;;;;15.77;11.15;;;;;;;;;;5045808;28;20268;-53
2022/01/17 06:46:41;;;;;;;16.33;11.02;;;;;;;;;;5062797;28;20021;-53
2022/01/17 06:49:06;;;;;;;15.77;11.40;;;;;;;;;;5059666;28;20433;-53
2022/01/17 06:51:31;;;;;;;16.17;11.07;;;;;;;;;;5063500;28;20287;-51
2022/01/17 06:53:57;;;;;;;15.83;11.50;;;;;;;;;;5062354;28;20088;-56
2022/01/17 06:56:22;;;;;;;15.63;10.93;;;;;;;;;;5063499;28;20803;-53
2022/01/17 06:58:47;;;;;;;14.98;10.93;;;;;;;;;;5043453;28;20573;-52
2022/01/17 07:01:13;;;;;;;14.95;10.75;;;;;;;;;;5062720;28;20434;-53
2022/01/17 07:03:39;;;;;;;15.25;10.80;;;;;;;;;;5052647;28;20021;-54
2022/01/17 07:06:04;;;;;;;15.57;10.63;;;;;;;;;;5063310;28;20490;-60
2022/01/17 07:08:29;;;;;;;15.47;10.70;;;;;;;;;;5063279;28;20036;-54
2022/01/17 07:10:55;;;;;;;15.60;10.55;;;;;;;;;;5063025;28;20660;-55
2022/01/17 07:13:20;;;;;;;15.02;10.63;;;;;;;;;;5050894;28;20624;-56
2022/01/17 07:15:45;;;;;;;13.93;10.00;;;;;;;;;;5050291;28;20028;-54
2022/01/17 07:18:12;;;;;;;13.07;10.30;;;;;;;;;;5052525;28;20015;-53
2022/01/17 07:20:37;;;;;;;13.18;10.50;;;;;;;;;;5057548;28;20059;-54
2022/01/17 07:23:02;;;;;;;14.95;10.68;;;;;;;;;;5036524;28;20465;-56
2022/01/17 07:25:28;;;;;;;13.20;9.53;;;;;;;;;;5039055;28;20053;-54
2022/01/17 07:27:55;;;;;;;14.63;10.43;;;;;;;;;;5042265;28;20135;-56
2022/01/17 07:30:21;;;;;;;15.75;10.15;;;;;;;;;;5044882;28;20259;-55
2022/01/17 07:32:46;;;;;;;15.00;10.35;;;;;;;;;;5049673;28;20029;-56
2022/01/17 07:35:11;;;;;;;15.38;10.35;;;;;;;;;;5050303;28;20024;-56
2022/01/17 07:37:36;;;;;;;15.70;10.40;;;;;;;;;;5051407;28;20435;-56
2022/01/17 07:40:02;;;;;;;13.03;9.73;;;;;;;;;;5039467;28;20336;-55
2022/01/17 07:42:28;;;;;;;13.02;10.02;;;;;;;;;;5042588;28;20021;-56
2022/01/17 07:44:55;;;;;;;15.18;10.27;;;;;;;;;;5042189;28;20399;-56
2022/01/17 07:47:42;;;;;;;14.48;10.90;;;;;;;;;;5040223;28;20166;-56
2022/01/17 07:50:10;;;;;;;14.55;10.40;;;;;;;;;;5040415;28;20040;-56
2022/01/17 07:52:36;;;;;;;16.83;10.60;;;;;;;;;;5018630;28;20049;-57
2022/01/17 07:55:01;;;;;;;14.02;10.38;;;;;;;;;;5020727;28;20044;-56
2022/01/17 07:57:26;;;;;;;14.17;9.90;;;;;;;;;;5020450;28;20024;-57
2022/01/17 07:59:51;;;;;;;15.20;10.70;;;;;;;;;;5022799;28;20337;-57
2022/01/17 08:02:16;;;;;;;16.73;10.43;;;;;;;;;;5021232;28;20059;-57
2022/01/17 08:04:42;;;;;;;14.70;10.00;;;;;;;;;;5021230;28;20279;-57
2022/01/17 08:07:07;;;;;;;16.30;10.13;;;;;;;;;;5022412;28;20471;-57
2022/01/17 08:09:33;;;;;;;14.35;10.13;;;;;;;;;;5022409;28;20299;-56
2022/01/17 08:11:58;;;;;;;14.27;9.68;;;;;;;;;;5023562;28;20032;-57
2022/01/17 08:14:24;;;;;;;13.33;10.13;;;;;;;;;;5022201;28;20045;-57
2022/01/17 08:16:49;;;;;;;13.43;9.95;;;;;;;;;;5022152;28;20272;-58
2022/01/17 08:19:15;;;;;;;13.70;10.57;;;;;;;;;;5022604;28;20026;-57
2022/01/17 08:21:40;;;;;;;12.48;9.77;;;;;;;;;;5022114;28;20022;-55
2022/01/17 08:24:05;;;;;;;15.23;10.17;;;;;;;;;;5022236;28;20108;-57
2022/01/17 08:26:31;;;;;;;15.60;10.15;;;;;;;;;;5022266;28;20337;-58
2022/01/17 08:28:56;;;;;;;13.73;10.43;;;;;;;;;;5022315;28;20120;-58
2022/01/17 08:31:21;;;;;;;14.18;9.57;;;;;;;;;;5035052;28;20282;-58
2022/01/17 08:33:46;;;;;;;13.63;9.73;;;;;;;;;;5031593;28;20029;-56
2022/01/17 08:36:12;;;;;;;14.27;9.43;;;;;;;;;;5020734;28;20303;-56
2022/01/17 08:38:37;;;;;;;14.98;9.68;;;;;;;;;;5020896;28;20064;-58
2022/01/17 08:41:02;;;;;;;13.43;9.40;;;;;;;;;;5020496;28;20048;-57
2022/01/17 08:43:28;;;;;;;13.60;9.43;;;;;;;;;;5019235;28;20032;-57
2022/01/17 08:45:53;;;;;;;15.30;10.00;;;;;;;;;;5020803;28;20813;-55
2022/01/17 08:48:18;;;;;;;13.67;9.40;;;;;;;;;;5020341;28;20559;-57
2022/01/17 08:50:46;;;;;;;15.52;10.30;;;;;;;;;;5027208;28;20329;-57
2022/01/17 08:53:13;;;;;;;13.77;9.73;;;;;;;;;;5039978;28;20041;-56
2022/01/17 08:55:38;;;;;;;13.55;9.13;;;;;;;;;;5040039;28;20036;-56
2022/01/17 08:58:04;;;;;;;11.90;9.30;;;;;;;;;;5040186;28;20112;-55
2022/01/17 09:00:31;;;;;;;13.70;9.43;;;;;;;;;;5042815;28;20776;-56
2022/01/17 09:02:56;;;;;;;12.45;9.00;;;;;;;;;;5040016;28;20483;-56
2022/01/17 09:05:21;;;;;;;13.27;9.50;;;;;;;;;;5054284;28;20213;-56
2022/01/17 09:07:47;;;;;;;13.70;9.40;;;;;;;;;;5051974;28;20343;-56
2022/01/17 09:10:12;;;;;;;12.07;8.77;;;;;;;;;;5038100;28;20513;-58
2022/01/17 09:12:37;;;;;;;12.07;9.13;;;;;;;;;;5037865;28;20028;-55
2022/01/17 09:15:03;;;;;;;12.90;9.13;;;;;;;;;;5041963;28;20325;-56
2022/01/17 09:17:28;;;;;;;14.38;9.18;;;;;;;;;;5043912;28;20483;-56
2022/01/17 09:19:53;;;;;;;14.53;9.47;;;;;;;;;;5044649;28;20041;-56
2022/01/17 09:22:18;;;;;;;13.07;8.73;;;;;;;;;;5043961;28;20266;-54
2022/01/17 09:24:44;;;;;;;12.40;9.07;;;;;;;;;;5042965;28;20012;-54
2022/01/17 09:27:10;;;;;;;13.57;8.90;;;;;;;;;;5042953;28;20116;-54
2022/01/17 09:29:35;;;;;;;14.50;9.68;;;;;;;;;;5044545;28;20314;-55
2022/01/17 09:32:01;;;;;;;13.30;9.07;;;;;;;;;;5045873;28;20475;-54
2022/01/17 09:34:26;;;;;;;12.88;9.35;;;;;;;;;;5045164;28;20287;-54
2022/01/17 09:36:52;;;;;;;13.23;8.88;;;;;;;;;;5045945;28;20379;-54
2022/01/17 09:39:18;;;;;;;11.18;8.45;;;;;;;;;;5045889;28;20049;-55
2022/01/17 09:41:44;;;;;;;12.00;8.85;;;;;;;;;;5045837;28;20368;-54
2022/01/17 09:44:12;;;;;;;13.38;9.60;;;;;;;;;;5047921;28;20090;-54
2022/01/17 09:46:44;;;;;;;12.82;9.13;;;;;;;;;;5045840;28;20036;-54
2022/01/17 09:49:26;;;;;;;11.93;8.68;;;;;;;;;;5047610;28;20025;-55
2022/01/17 09:54:26;;;;;;;11.40;8.30;;;;;;;;;;5045811;28;20071;-57
2022/01/17 09:56:53;;;;;;;12.63;8.90;;;;;;;;;;5045491;28;20056;-53
2022/01/17 09:59:18;;;;;;;12.40;9.00;;;;;;;;;;5045639;28;20358;-53
2022/01/17 10:01:43;;;;;;;13.20;8.93;;;;;;;;;;5045402;28;20434;-53
2022/01/17 10:04:09;;;;;;;14.73;9.27;;;;;;;;;;5047366;28;20684;-54
2022/01/17 10:06:35;;;;;;;10.57;8.25;;;;;;;;;;5045196;28;20467;-54
2022/01/17 10:09:10;;;;;;;11.82;8.32;;;;;;;;;;5051056;28;20103;-54
2022/01/17 10:11:35;;;;;;;11.68;8.25;;;;;;;;;;5051362;28;20021;-57
2022/01/17 10:14:01;;;;;;;12.48;8.13;;;;;;;;;;5047202;28;20037;-57
2022/01/17 10:16:28;;;;;;;11.98;7.65;;;;;;;;;;5048076;28;20017;-56
2022/01/17 10:19:04;;;;;;;11.32;7.82;;;;;;;;;;5045021;28;20043;-55
2022/01/17 10:21:30;;;;;;;11.50;7.65;;;;;;;;;;5043506;28;20051;-57
2022/01/17 10:36:42;;;;;;;15.18;8.70;;;;;;;;;;5063329;28;20220;-55
2022/01/17 10:39:08;;;;;;;14.75;8.95;;;;;;;;;;5063333;28;20158;-57
2022/01/17 10:41:33;;;;;;;14.27;8.37;;;;;;;;;;5063413;28;20036;-55
2022/01/17 10:43:58;;;;;;;12.50;7.23;;;;;;;;;;5055699;28;20097;-55
2022/01/17 10:46:23;;;;;;;14.00;7.80;;;;;;;;;;5050527;28;20016;-54
2022/01/17 10:48:48;;;;;;;12.27;7.05;;;;;;;;;;5062870;28;20034;-55
2022/01/17 10:51:14;;;;;;;14.10;7.90;;;;;;;;;;5041099;28;20080;-54
2022/01/17 10:53:40;;;;;;;11.85;7.18;;;;;;;;;;5043485;28;20037;-55
2022/01/17 10:56:08;;;;;;;14.18;8.45;;;;;;;;;;5045925;28;20108;-55
2022/01/17 10:58:35;;;;;;;13.90;7.90;;;;;;;;;;5041301;28;20056;-53
2022/01/17 11:01:01;;;;;;;12.80;7.75;;;;;;;;;;5061735;28;20021;-54
2022/01/17 11:03:33;;;;;;;10.32;7.40;;;;;;;;;;5062432;28;20580;-54
2022/01/17 11:06:03;;;;;;;11.10;7.03;;;;;;;;;;5061987;28;20063;-55
2022/01/17 11:08:29;;;;;;;10.07;6.90;;;;;;;;;;5056869;28;20032;-55
2022/01/17 11:10:55;;;;;;;11.05;7.35;;;;;;;;;;5045844;28;20456;-54
2022/01/17 11:13:21;;;;;;;10.60;6.93;;;;;;;;;;5059728;28;20040;-54
2022/01/17 11:15:49;;;;;;;10.35;6.78;;;;;;;;;;5062229;28;20434;-54
2022/01/17 11:18:21;;;;;;;11.63;7.20;;;;;;;;;;5058971;28;20119;-54
2022/01/17 11:20:47;;;;;;;12.80;6.97;;;;;;;;;;5058154;28;20024;-55
2022/01/17 11:23:12;;;;;;;10.07;7.00;;;;;;;;;;5062491;28;20032;-55
2022/01/17 11:25:40;;;;;;;10.95;6.97;;;;;;;;;;5062592;28;20104;-57
2022/01/17 11:28:06;;;;;;;11.45;6.97;;;;;;;;;;5060026;28;20035;-54
2022/01/17 11:30:34;;;;;;;9.85;6.88;;;;;;;;;;5061017;28;20020;-54
2022/01/17 11:33:02;;;;;;;8.98;5.57;;;;;;;;;;5055769;28;20178;-54
2022/01/17 11:35:27;;;;;;;10.68;6.13;;;;;;;;;;5055226;28;20084;-55
2022/01/17 11:37:54;;;;;;;10.07;6.17;;;;;;;;;;5057084;28;20096;-55
2022/01/17 11:40:21;;;;;;;9.98;5.90;;;;;;;;;;5043114;28;20021;-54
2022/01/17 11:42:47;;;;;;;9.75;6.82;;;;;;;;;;5042570;28;20479;-54
2022/01/17 11:45:22;;;;;;;10.82;6.63;;;;;;;;;;5052777;28;20398;-54
2022/01/17 11:47:53;;;;;;;8.15;6.38;;;;;;;;;;5061521;28;20024;-55
2022/01/17 11:50:28;;;;;;;9.40;6.55;;;;;;;;;;5057846;28;20030;-54
2022/01/17 11:52:56;;;;;;;10.88;6.65;;;;;;;;;;5061952;28;20028;-53
2022/01/17 11:55:42;;;;;;;8.90;6.00;;;;;;;;;;5051805;28;20030;-56
2022/01/17 11:58:27;;;;;;;10.25;6.57;;;;;;;;;;5060489;28;20047;-55
2022/01/17 12:00:59;;;;;;;8.32;5.95;;;;;;;;;;5061694;28;20563;-56
2022/01/17 12:03:25;;;;;;;7.95;5.70;;;;;;;;;;5053811;28;20042;-55
2022/01/17 12:05:50;;;;;;;7.70;5.75;;;;;;;;;;5042579;28;20475;-56
2022/01/17 12:08:17;;;;;;;9.60;5.97;;;;;;;;;;5040975;28;20033;-57
2022/01/17 12:10:43;;;;;;;8.85;6.03;;;;;;;;;;5044912;28;20620;-57
2022/01/17 12:13:12;;;;;;;7.53;5.72;;;;;;;;;;5041561;28;20054;-53
2022/01/17 12:15:58;;;;;;;7.80;5.35;;;;;;;;;;5040808;28;20021;-55
2022/01/17 12:18:29;;;;;;;7.47;5.40;;;;;;;;;;5041408;28;20414;-56
2022/01/17 12:20:55;;;;;;;7.63;5.35;;;;;;;;;;5042084;28;20039;-56
2022/01/17 12:23:24;;;;;;;10.05;5.88;;;;;;;;;;5043334;28;20029;-55
2022/01/17 12:25:49;;;;;;;7.18;5.45;;;;;;;;;;5023614;28;20043;-55
2022/01/17 12:28:17;;;;;;;8.13;5.47;;;;;;;;;;5024492;28;20016;-57
2022/01/17 12:30:56;;;;;;;8.55;5.47;;;;;;;;;;5044616;28;20019;-56
2022/01/17 12:33:39;;;;;;;7.00;5.07;;;;;;;;;;5043102;28;20464;-57
2022/01/17 12:36:06;;;;;;;8.45;5.13;;;;;;;;;;5046828;28;20035;-57
2022/01/17 12:38:32;;;;;;;7.75;5.82;;;;;;;;;;5046355;28;20024;-58
2022/01/17 12:40:58;;;;;;;8.15;5.35;;;;;;;;;;5047791;28;20079;-57
2022/01/17 12:43:32;;;;;;;7.18;5.15;;;;;;;;;;5041858;28;20504;-56
2022/01/17 12:45:59;;;;;;;7.88;5.85;;;;;;;;;;5045736;28;20025;-55
2022/01/17 12:48:24;;;;;;;7.90;5.38;;;;;;;;;;5049343;28;20048;-56
2022/01/17 12:50:51;;;;;;;8.38;5.38;;;;;;;;;;5047892;28;20748;-55
2022/01/17 12:53:17;;;;;;;7.18;4.93;;;;;;;;;;5050029;28;20037;-56
2022/01/17 12:55:43;;;;;;;7.55;5.75;;;;;;;;;;5052471;28;20033;-55
2022/01/17 12:58:10;;;;;;;7.88;4.90;;;;;;;;;;5050001;28;20027;-56
2022/01/17 13:00:35;;;;;;;7.57;4.65;;;;;;;;;;5043315;28;20078;-60
2022/01/17 13:05:30;;;;;;;7.47;5.40;;;;;;;;;;5022884;28;20060;-55
2022/01/17 13:07:55;;;;;;;6.32;4.80;;;;;;;;;;5022761;28;20033;-54
2022/01/17 13:10:21;;;;;;;5.97;4.30;;;;;;;;;;5029016;28;20087;-58
2022/01/17 13:12:50;;;;;;;6.90;5.00;;;;;;;;;;5044168;28;20392;-53
2022/01/17 13:15:15;;;;;;;6.53;4.32;;;;;;;;;;5022808;28;20079;-57
2022/01/17 13:17:40;;;;;;;7.30;5.07;;;;;;;;;;5039374;28;20029;-54
2022/01/17 13:20:06;;;;;;;6.33;4.30;;;;;;;;;;5044536;28;20033;-57
2022/01/17 13:22:39;;;;;;;6.47;4.28;;;;;;;;;;5044582;28;20745;-56
2022/01/17 13:25:07;;;;;;;6.88;4.50;;;;;;;;;;5034840;28;20300;-57
2022/01/17 13:27:33;;;;;;;6.22;4.32;;;;;;;;;;5038033;28;20047;-57
2022/01/17 13:29:59;;;;;;;7.03;4.43;;;;;;;;;;5043885;28;20032;-58
2022/01/17 13:32:31;;;;;;;6.90;4.88;;;;;;;;;;5041456;28;20037;-55
2022/01/17 13:35:00;;;;;;;7.28;4.80;;;;;;;;;;5031088;28;20067;-55
2022/01/17 13:37:25;;;;;;;7.20;4.22;;;;;;;;;;5023202;28;20030;-55
2022/01/17 13:39:51;;;;;;;6.50;4.57;;;;;;;;;;5043357;28;20410;-56
2022/01/17 13:42:16;;;;;;;6.30;4.53;;;;;;;;;;5040989;28;20350;-57
2022/01/17 13:44:41;;;;;;;5.80;4.27;;;;;;;;;;5038565;28;20267;-58
2022/01/17 13:47:06;;;;;;;6.18;4.50;;;;;;;;;;5039871;28;20083;-57
2022/01/17 13:49:32;;;;;;;6.63;4.40;;;;;;;;;;5040324;28;20061;-56
2022/01/17 13:51:58;;;;;;;5.90;4.53;;;;;;;;;;5025815;28;20295;-57
2022/01/17 13:54:26;;;;;;;6.72;4.35;;;;;;;;;;5034272;28;20034;-56
2022/01/17 13:56:52;;;;;;;6.28;4.10;;;;;;;;;;5026569;28;20022;-57
2022/01/17 13:59:17;;;;;;;5.85;4.28;;;;;;;;;;5023198;28;20020;-56
2022/01/17 14:01:42;;;;;;;5.83;4.13;;;;;;;;;;5021374;28;20478;-55
2022/01/17 14:04:17;;;;;;;5.60;4.30;;;;;;;;;;5025519;28;20288;-54
2022/01/17 14:06:43;;;;;;;5.88;4.38;;;;;;;;;;5026688;28;20187;-56
2022/01/17 14:09:08;;;;;;;5.95;4.50;;;;;;;;;;5026865;28;20057;-55
2022/01/17 14:11:35;;;;;;;7.05;4.53;;;;;;;;;;5025603;28;20010;-57
2022/01/17 14:14:00;;;;;;;6.22;4.20;;;;;;;;;;5023722;28;20698;-57
2022/01/17 14:16:27;;;;;;;6.03;4.38;;;;;;;;;;5028583;28;20037;-55
2022/01/17 14:18:59;;;;;;;6.30;4.88;;;;;;;;;;5026243;28;20069;-55
2022/01/17 14:21:37;;;;;;;7.35;4.60;;;;;;;;;;5035401;28;20112;-54
2022/01/17 14:24:06;;;;;;;6.85;5.05;;;;;;;;;;5041339;28;20025;-56
2022/01/17 14:26:31;;;;;;;5.68;4.53;;;;;;;;;;5039105;28;20103;-55
2022/01/17 14:28:57;;;;;;;5.07;4.13;;;;;;;;;;5042066;28;20494;-56
2022/01/17 14:31:22;;;;;;;6.90;4.85;;;;;;;;;;5036793;28;20483;-55
2022/01/17 14:33:51;;;;;;;6.28;4.75;;;;;;;;;;5040728;28;20036;-54
2022/01/17 14:36:16;;;;;;;5.53;4.03;;;;;;;;;;5025870;28;20029;-56
2022/01/17 14:38:45;;;;;;;5.43;4.45;;;;;;;;;;5026799;28;20758;-55
2022/01/17 14:41:19;;;;;;;6.22;4.30;;;;;;;;;;5031244;28;20464;-54
2022/01/17 14:43:51;;;;;;;5.70;4.03;;;;;;;;;;5030722;28;20021;-54
2022/01/17 14:46:16;;;;;;;6.68;3.83;;;;;;;;;;5030804;28;20170;-59
2022/01/17 14:48:41;;;;;;;5.95;4.32;;;;;;;;;;5026519;28;20537;-57
2022/01/17 14:51:11;;;;;;;6.25;4.40;;;;;;;;;;5023874;28;20021;-56
2022/01/17 14:53:36;;;;;;;6.28;4.13;;;;;;;;;;5024570;28;20505;-56
2022/01/17 15:01:36;;;;;;;5.28;3.80;;;;;;;;;;5024329;28;20099;-54